createdAt,value
2023-04-07T00:00:55.854Z,23.65
2023-04-07T00:03:23.639Z,23.83
2023-04-07T00:05:51.283Z,25.77
2023-04-07T00:08:18.457Z,27.30
2023-04-07T00:10:45.710Z,26.48
2023-04-07T00:13:12.861Z,24.48
2023-04-07T00:15:40.072Z,22.73
2023-04-07T00:18:07.319Z,23.92
2023-04-07T00:20:34.571Z,26.85
2023-04-07T00:23:01.737Z,24.75
2023-04-07T00:25:29.287Z,24.67
2023-04-07T00:27:56.412Z,24.35
2023-04-07T00:30:23.717Z,24.85
2023-04-07T00:32:51.725Z,23.90
2023-04-07T00:35:19.108Z,25.63
2023-04-07T00:37:46.224Z,23.83
2023-04-07T00:40:13.484Z,25.45
2023-04-07T00:42:40.667Z,21.70
2023-04-07T00:45:10.093Z,26.48
2023-04-07T00:47:37.293Z,25.60
2023-04-07T00:50:05.787Z,24.40
2023-04-07T00:52:33.680Z,25.52
2023-04-07T00:55:00.903Z,24.80
2023-04-07T00:57:28.125Z,26.58
2023-04-07T00:59:56.310Z,25.70
2023-04-07T01:03:04.844Z,23.50
2023-04-07T01:05:46.334Z,24.75
2023-04-07T01:08:54.740Z,25.70
2023-04-07T01:11:37.803Z,26.63
2023-04-07T01:14:06.968Z,27.00
2023-04-07T01:16:48.457Z,26.38
2023-04-07T01:19:40.969Z,28.45
2023-04-07T01:22:14.194Z,24.23
2023-04-07T01:25:22.050Z,24.45
2023-04-07T01:28:02.658Z,25.40
2023-04-07T01:30:34.736Z,26.40
2023-04-07T01:33:03.916Z,26.73
2023-04-07T01:35:34.655Z,27.48
2023-04-07T01:38:03.755Z,23.63
2023-04-07T01:40:33.816Z,25.23
2023-04-07T01:43:02.771Z,25.27
2023-04-07T01:45:32.590Z,29.67
2023-04-07T01:48:01.008Z,25.75
2023-04-07T01:50:29.938Z,30.10
2023-04-07T01:52:57.747Z,26.30
2023-04-07T01:55:25.605Z,28.92
2023-04-07T01:57:55.884Z,29.80
2023-04-07T02:00:23.056Z,27.75
2023-04-07T02:02:58.969Z,25.60
2023-04-07T02:05:30.382Z,30.98
2023-04-07T02:08:05.767Z,30.60
2023-04-07T02:10:38.956Z,27.98
2023-04-07T02:13:10.294Z,28.15
2023-04-07T02:15:38.122Z,26.40
2023-04-07T02:18:07.935Z,29.75
2023-04-07T02:20:37.506Z,29.95
2023-04-07T02:23:04.660Z,25.63
2023-04-07T02:25:34.063Z,27.10
2023-04-07T02:28:01.574Z,28.02
2023-04-07T02:30:29.079Z,25.83
2023-04-07T02:32:56.825Z,27.80
2023-04-07T02:35:24.150Z,29.63
2023-04-07T02:37:51.731Z,27.75
2023-04-07T02:40:18.932Z,29.48
2023-04-07T02:42:46.742Z,33.78
2023-04-07T02:45:13.958Z,28.92
2023-04-07T02:47:41.163Z,29.70
2023-04-07T02:50:08.935Z,31.30
2023-04-07T02:52:36.209Z,30.17
2023-04-07T02:55:03.807Z,27.45
2023-04-07T02:57:31.018Z,31.85
2023-04-07T02:59:58.305Z,27.50
2023-04-07T03:02:25.919Z,28.33
2023-04-07T03:04:53.330Z,28.25
2023-04-07T03:07:20.673Z,30.55
2023-04-07T03:09:47.828Z,28.65
2023-04-07T03:12:15.077Z,31.50
2023-04-07T03:14:42.312Z,29.90
2023-04-07T03:17:10.410Z,29.63
2023-04-07T03:19:37.583Z,28.83
2023-04-07T03:22:04.731Z,28.08
2023-04-07T03:24:31.942Z,31.08
2023-04-07T03:26:59.136Z,28.83
2023-04-07T03:29:26.266Z,29.38
2023-04-07T03:31:53.669Z,26.80
2023-04-07T03:34:20.887Z,28.92
2023-04-07T03:36:48.106Z,31.10
2023-04-07T03:39:15.398Z,31.45
2023-04-07T03:41:42.653Z,33.30
2023-04-07T03:44:09.949Z,29.75
2023-04-07T03:46:37.139Z,26.85
2023-04-07T03:49:04.308Z,28.75
2023-04-07T03:51:31.518Z,27.98
2023-04-07T03:53:58.672Z,28.42
2023-04-07T03:56:27.911Z,30.45
2023-04-07T03:58:56.273Z,24.95
2023-04-07T04:01:23.620Z,27.95
2023-04-07T04:03:51.967Z,29.73
2023-04-07T04:06:19.442Z,29.05
2023-04-07T04:08:46.579Z,29.98
2023-04-07T04:11:13.849Z,33.88
2023-04-07T04:13:41.596Z,82.07
2023-04-07T04:16:08.994Z,30.60
2023-04-07T04:18:36.347Z,27.92
2023-04-07T04:21:03.702Z,26.77
2023-04-07T04:23:30.886Z,31.33
2023-04-07T04:26:00.168Z,31.50
2023-04-07T04:28:27.386Z,26.63
2023-04-07T04:30:54.599Z,26.08
2023-04-07T04:33:21.880Z,27.15
2023-04-07T04:35:49.149Z,27.90
2023-04-07T04:38:16.544Z,29.63
2023-04-07T04:40:43.802Z,30.38
2023-04-07T04:43:11.333Z,25.45
2023-04-07T04:45:38.548Z,33.08
2023-04-07T04:48:06.377Z,27.17
2023-04-07T04:50:33.719Z,25.15
2023-04-07T04:53:01.029Z,28.55
2023-04-07T04:55:28.240Z,25.13
2023-04-07T04:57:55.398Z,22.48
2023-04-07T05:00:22.569Z,25.63
2023-04-07T05:02:49.915Z,23.50
2023-04-07T05:05:17.431Z,25.85
2023-04-07T05:07:44.676Z,24.83
2023-04-07T05:10:11.948Z,24.65
2023-04-07T05:12:39.134Z,21.38
2023-04-07T05:15:07.215Z,20.52
2023-04-07T05:17:34.413Z,25.40
2023-04-07T05:20:01.953Z,22.90
2023-04-07T05:22:29.152Z,23.73
2023-04-07T05:24:56.302Z,19.88
2023-04-07T05:27:23.503Z,23.65
2023-04-07T05:29:50.693Z,20.55
2023-04-07T05:32:19.340Z,20.48
2023-04-07T05:34:46.508Z,19.58
2023-04-07T05:37:13.662Z,19.80
2023-04-07T05:39:40.967Z,22.60
2023-04-07T05:42:08.199Z,18.73
2023-04-07T05:44:35.426Z,23.02
2023-04-07T05:47:05.747Z,19.98
2023-04-07T05:49:33.234Z,19.83
2023-04-07T05:52:00.692Z,22.08
2023-04-07T05:54:27.922Z,19.58
2023-04-07T05:56:55.148Z,18.92
2023-04-07T05:59:22.320Z,19.50
2023-04-07T06:01:49.750Z,17.48
2023-04-07T06:04:16.969Z,18.25
2023-04-07T06:06:44.169Z,18.33
2023-04-07T06:09:11.396Z,16.17
2023-04-07T06:11:38.548Z,18.17
2023-04-07T06:14:05.745Z,16.40
2023-04-07T06:16:32.954Z,18.85
2023-04-07T06:19:00.186Z,18.50
2023-04-07T06:21:27.426Z,14.95
2023-04-07T06:23:54.582Z,18.17
2023-04-07T06:26:22.805Z,17.08
2023-04-07T06:28:50.108Z,15.38
2023-04-07T06:31:17.986Z,24.15
2023-04-07T06:33:46.002Z,17.63
2023-04-07T06:36:13.237Z,16.30
2023-04-07T06:38:40.606Z,16.05
2023-04-07T06:41:11.614Z,17.98
2023-04-07T06:43:38.824Z,14.90
2023-04-07T06:46:06.529Z,19.42
2023-04-07T06:48:33.714Z,34.95
2023-04-07T06:51:01.012Z,15.88
2023-04-07T06:53:28.258Z,17.77
2023-04-07T06:56:07.768Z,14.73
2023-04-07T06:58:37.022Z,17.95
2023-04-07T07:01:06.034Z,18.50
2023-04-07T07:03:33.717Z,16.17
2023-04-07T07:06:02.148Z,21.13
2023-04-07T07:08:30.639Z,13.50
2023-04-07T07:10:57.800Z,13.82
2023-04-07T07:13:26.985Z,18.73
2023-04-07T07:15:54.616Z,17.15
2023-04-07T07:18:21.834Z,15.90
2023-04-07T07:20:49.111Z,13.82
2023-04-07T07:23:16.304Z,13.50
2023-04-07T07:25:43.856Z,15.50
2023-04-07T07:28:11.037Z,18.92
2023-04-07T07:30:41.357Z,15.73
2023-04-07T07:33:08.546Z,12.23
2023-04-07T07:35:37.804Z,15.68
2023-04-07T07:38:05.068Z,13.77
2023-04-07T07:40:33.583Z,17.15
2023-04-07T07:43:00.879Z,17.20
2023-04-07T07:45:28.016Z,14.05
2023-04-07T07:47:55.214Z,14.45
2023-04-07T07:50:22.648Z,12.73
2023-04-07T07:52:49.942Z,13.98
2023-04-07T07:55:17.107Z,13.38
2023-04-07T07:57:44.286Z,15.30
2023-04-07T08:00:12.114Z,14.27
2023-04-07T08:02:39.776Z,14.30
2023-04-07T08:05:07.749Z,13.30
2023-04-07T08:07:35.607Z,15.63
2023-04-07T08:10:02.736Z,13.30
2023-04-07T08:12:29.944Z,15.35
2023-04-07T08:14:57.128Z,14.32
2023-04-07T08:17:24.422Z,15.38
2023-04-07T08:19:51.902Z,14.77
2023-04-07T08:22:21.021Z,13.85
2023-04-07T08:24:48.211Z,13.48
2023-04-07T08:27:15.356Z,13.68
2023-04-07T08:29:42.584Z,14.80
2023-04-07T08:32:09.753Z,13.57
2023-04-07T08:34:36.937Z,13.95
2023-04-07T08:37:04.117Z,16.00
2023-04-07T08:39:31.451Z,13.45
2023-04-07T08:41:59.054Z,14.73
2023-04-07T08:44:29.793Z,13.63
2023-04-07T08:47:00.992Z,12.48
2023-04-07T08:49:29.921Z,12.73
2023-04-07T08:52:00.503Z,14.27
2023-04-07T08:54:28.519Z,14.55
2023-04-07T08:56:56.381Z,12.57
2023-04-07T08:59:28.455Z,14.27
2023-04-07T09:01:56.395Z,12.40
2023-04-07T09:04:24.772Z,13.65
2023-04-07T09:06:51.951Z,16.70
2023-04-07T09:09:19.161Z,13.20
2023-04-07T09:11:49.005Z,12.43
2023-04-07T09:14:16.404Z,12.57
2023-04-07T09:16:43.836Z,12.68
2023-04-07T09:19:11.080Z,12.85
2023-04-07T09:21:49.731Z,12.90
2023-04-07T09:24:28.566Z,10.57
2023-04-07T09:27:18.882Z,12.45
2023-04-07T09:29:47.830Z,12.75
2023-04-07T09:32:41.446Z,12.07
2023-04-07T09:35:09.564Z,15.40
2023-04-07T09:37:37.342Z,11.35
2023-04-07T09:40:05.259Z,11.88
2023-04-07T09:42:35.935Z,13.75
2023-04-07T09:45:03.686Z,14.05
2023-04-07T09:47:32.747Z,14.15
2023-04-07T09:50:06.528Z,11.45
2023-04-07T09:52:54.697Z,12.77
2023-04-07T09:55:23.446Z,9.52
2023-04-07T09:57:51.426Z,12.70
2023-04-07T10:00:19.515Z,10.82
2023-04-07T10:02:47.917Z,11.02
2023-04-07T10:05:15.698Z,10.57
2023-04-07T10:07:43.786Z,13.18
2023-04-07T10:10:11.553Z,12.35
2023-04-07T10:12:39.178Z,11.05
2023-04-07T10:15:07.416Z,12.02
2023-04-07T10:17:37.429Z,12.10
2023-04-07T10:20:07.805Z,12.70
2023-04-07T10:22:37.886Z,14.20
2023-04-07T10:25:11.211Z,10.45
2023-04-07T10:28:11.766Z,10.75
2023-04-07T10:30:40.537Z,9.23
2023-04-07T10:33:07.667Z,9.77
2023-04-07T10:36:07.245Z,10.27
2023-04-07T10:38:34.518Z,9.55
2023-04-07T10:41:43.295Z,11.82
2023-04-07T10:44:39.165Z,11.55
2023-04-07T10:47:06.917Z,12.60
2023-04-07T10:49:35.689Z,10.05
2023-04-07T10:52:11.949Z,12.25
2023-04-07T10:54:41.444Z,9.68
2023-04-07T10:57:14.933Z,8.48
2023-04-07T11:00:11.872Z,10.50
2023-04-07T11:02:40.354Z,10.38
2023-04-07T11:05:08.773Z,11.48
2023-04-07T11:07:51.809Z,10.00
2023-04-07T11:13:08.104Z,13.85
2023-04-07T11:15:40.280Z,9.98
2023-04-07T11:18:18.200Z,13.80
2023-04-07T11:21:00.623Z,11.00
2023-04-07T11:23:28.489Z,11.27
2023-04-07T11:26:03.686Z,12.00
2023-04-07T11:28:31.630Z,12.13
2023-04-07T11:31:00.255Z,12.52
2023-04-07T11:33:32.211Z,10.45
2023-04-07T11:36:02.347Z,15.27
2023-04-07T11:38:36.105Z,12.27
2023-04-07T11:41:15.426Z,14.65
2023-04-07T11:43:42.882Z,13.15
2023-04-07T11:46:13.757Z,13.18
2023-04-07T11:48:44.012Z,13.77
2023-04-07T11:51:20.942Z,14.13
2023-04-07T11:53:54.127Z,13.02
2023-04-07T11:56:22.189Z,12.02
2023-04-07T11:58:53.527Z,10.70
2023-04-07T12:01:24.631Z,11.23
2023-04-07T12:04:01.890Z,9.95
2023-04-07T12:06:34.803Z,10.88
2023-04-07T12:09:03.555Z,11.15
2023-04-07T12:11:31.960Z,11.35
2023-04-07T12:13:59.283Z,8.38
2023-04-07T12:16:26.535Z,8.60
2023-04-07T12:18:54.234Z,10.73
2023-04-07T12:21:21.432Z,9.40
2023-04-07T12:23:48.805Z,10.73
2023-04-07T12:26:16.175Z,10.43
2023-04-07T12:28:43.391Z,12.85
2023-04-07T12:31:10.991Z,11.15
2023-04-07T12:33:38.123Z,9.63
2023-04-07T12:36:05.819Z,9.02
2023-04-07T12:38:32.994Z,9.57
2023-04-07T12:41:03.429Z,8.50
2023-04-07T12:43:31.526Z,11.23
2023-04-07T12:45:58.706Z,8.63
2023-04-07T12:48:27.383Z,10.13
2023-04-07T12:50:54.804Z,9.23
2023-04-07T12:53:22.801Z,10.88
2023-04-07T12:55:50.648Z,10.43
2023-04-07T12:58:19.041Z,9.68
2023-04-07T13:00:48.989Z,8.85
2023-04-07T13:03:16.867Z,9.45
2023-04-07T13:05:44.193Z,7.22
2023-04-07T13:08:11.328Z,9.93
2023-04-07T13:10:38.453Z,8.25
2023-04-07T13:13:05.998Z,9.38
2023-04-07T13:15:33.259Z,8.40
2023-04-07T13:18:00.792Z,10.32
2023-04-07T13:20:28.328Z,9.85
2023-04-07T13:23:07.125Z,12.15
2023-04-07T13:25:35.259Z,7.97
2023-04-07T13:28:02.462Z,9.02
2023-04-07T13:30:29.711Z,9.73
2023-04-07T13:32:57.478Z,12.52
2023-04-07T13:35:24.778Z,11.23
2023-04-07T13:37:52.566Z,10.32
2023-04-07T13:40:19.854Z,12.07
2023-04-07T13:42:47.126Z,9.82
2023-04-07T13:45:14.305Z,9.93
2023-04-07T13:47:41.623Z,9.98
2023-04-07T13:50:09.234Z,10.45
2023-04-07T13:52:37.685Z,10.25
2023-04-07T13:55:06.319Z,8.32
2023-04-07T13:57:34.242Z,12.77
2023-04-07T14:00:02.334Z,10.68
2023-04-07T14:02:30.416Z,10.23
2023-04-07T14:04:57.847Z,12.27
2023-04-07T14:07:24.999Z,8.27
2023-04-07T14:09:52.300Z,10.63
2023-04-07T14:12:21.780Z,7.97
2023-04-07T14:14:52.081Z,12.65
2023-04-07T14:17:19.372Z,7.82
2023-04-07T14:19:47.399Z,12.73
2023-04-07T14:22:15.397Z,44.97
2023-04-07T14:24:42.653Z,13.50
2023-04-07T14:27:09.765Z,29.35
2023-04-07T14:29:37.110Z,14.55
2023-04-07T14:32:04.370Z,12.10
2023-04-07T14:34:32.529Z,22.45
2023-04-07T14:36:59.849Z,12.20
2023-04-07T14:39:27.030Z,21.63
2023-04-07T14:41:54.203Z,12.38
2023-04-07T14:44:21.379Z,11.88
2023-04-07T14:46:48.785Z,17.95
2023-04-07T14:49:16.004Z,11.52
2023-04-07T14:51:43.140Z,8.45
2023-04-07T14:54:10.493Z,8.02
2023-04-07T14:56:37.747Z,9.00
2023-04-07T14:59:04.916Z,8.38
2023-04-07T15:01:32.159Z,8.57
2023-04-07T15:04:00.941Z,10.00
2023-04-07T15:06:28.341Z,11.68
2023-04-07T15:08:55.535Z,8.48
2023-04-07T15:11:22.840Z,11.43
2023-04-07T15:13:50.365Z,10.60
2023-04-07T15:16:17.956Z,10.73
2023-04-07T15:18:47.271Z,10.25
2023-04-07T15:21:15.377Z,9.85
2023-04-07T15:23:42.839Z,10.40
2023-04-07T15:26:10.320Z,9.48
2023-04-07T15:28:38.950Z,11.38
2023-04-07T15:31:09.974Z,10.45
2023-04-07T15:33:40.191Z,8.98
2023-04-07T15:36:09.009Z,8.88
2023-04-07T15:38:38.832Z,10.77
2023-04-07T15:41:06.374Z,8.60
2023-04-07T15:43:34.476Z,7.78
2023-04-07T15:46:01.706Z,9.13
2023-04-07T15:48:28.860Z,6.53
2023-04-07T15:50:56.204Z,5.88
2023-04-07T15:53:23.529Z,7.35
2023-04-07T15:55:50.710Z,6.40
2023-04-07T15:58:17.948Z,5.20
2023-04-07T16:00:46.118Z,6.72
2023-04-07T16:03:13.440Z,4.47
2023-04-07T16:05:40.710Z,7.10
2023-04-07T16:08:07.842Z,7.03
2023-04-07T16:10:34.978Z,4.35
2023-04-07T16:13:02.144Z,5.40
2023-04-07T16:15:40.024Z,5.22
2023-04-07T16:18:10.604Z,4.70
2023-04-07T16:20:38.032Z,6.03
2023-04-07T16:23:05.291Z,4.15
2023-04-07T16:25:32.465Z,5.95
2023-04-07T16:27:59.590Z,3.67
2023-04-07T16:30:26.857Z,5.22
2023-04-07T16:32:54.028Z,4.88
2023-04-07T16:35:21.348Z,6.15
2023-04-07T16:37:49.968Z,3.88
2023-04-07T16:40:17.209Z,5.25
2023-04-07T16:42:44.349Z,4.88
2023-04-07T16:45:11.502Z,7.40
2023-04-07T16:47:39.299Z,5.05
2023-04-07T16:50:07.330Z,7.32
2023-04-07T16:52:34.524Z,6.97
2023-04-07T16:55:01.835Z,6.05
2023-04-07T16:57:29.131Z,3.97
2023-04-07T16:59:56.332Z,4.38
2023-04-07T17:02:23.770Z,7.20
2023-04-07T17:04:51.455Z,5.55
2023-04-07T17:07:18.876Z,4.43
2023-04-07T17:09:46.059Z,5.82
2023-04-07T17:12:13.641Z,5.70
2023-04-07T17:14:41.449Z,5.18
2023-04-07T17:17:08.617Z,5.72
2023-04-07T17:19:36.015Z,28.33
2023-04-07T17:22:03.176Z,8.05
2023-04-07T17:24:30.475Z,6.10
2023-04-07T17:26:57.795Z,8.60
2023-04-07T17:29:30.085Z,8.35
2023-04-07T17:31:57.205Z,7.82
2023-04-07T17:34:24.557Z,11.65
2023-04-07T17:36:51.828Z,7.15
2023-04-07T17:39:19.030Z,6.60
2023-04-07T17:41:47.569Z,7.88
2023-04-07T17:44:14.908Z,10.75
2023-04-07T17:46:42.095Z,8.73
2023-04-07T17:49:09.327Z,6.43
2023-04-07T17:51:37.174Z,5.57
2023-04-07T17:54:04.298Z,6.55
2023-04-07T17:56:31.394Z,4.60
2023-04-07T17:58:58.625Z,6.93
2023-04-07T18:01:25.801Z,5.05
2023-04-07T18:03:53.886Z,4.95
2023-04-07T18:06:21.787Z,5.45
2023-04-07T18:08:48.962Z,7.60
2023-04-07T18:11:17.274Z,7.45
2023-04-07T18:13:44.900Z,8.57
2023-04-07T18:16:17.632Z,6.13
2023-04-07T18:18:46.370Z,6.18
2023-04-07T18:21:13.537Z,7.07
2023-04-07T18:23:40.972Z,6.80
2023-04-07T18:26:08.121Z,5.95
2023-04-07T18:28:35.488Z,7.32
2023-04-07T18:31:07.510Z,6.13
2023-04-07T18:33:36.562Z,7.90
2023-04-07T18:36:08.366Z,9.90
2023-04-07T18:38:36.519Z,7.50
2023-04-07T18:41:06.619Z,9.48
2023-04-07T18:43:35.372Z,8.40
2023-04-07T18:46:02.560Z,8.10
2023-04-07T18:48:29.692Z,10.25
2023-04-07T18:50:56.885Z,12.10
2023-04-07T18:53:25.301Z,11.23
2023-04-07T18:55:52.493Z,9.07
2023-04-07T18:58:20.054Z,10.00
2023-04-07T19:00:53.029Z,13.75
2023-04-07T19:05:52.787Z,10.35
2023-04-07T19:08:20.362Z,9.70
2023-04-07T19:10:48.823Z,9.80
2023-04-07T19:13:18.306Z,10.25
2023-04-07T19:15:46.344Z,10.40
2023-04-07T19:18:13.822Z,11.48
2023-04-07T19:20:41.096Z,9.57
2023-04-07T19:23:08.304Z,8.85
2023-04-07T19:25:35.717Z,9.68
2023-04-07T19:28:03.233Z,9.75
2023-04-07T19:30:30.497Z,7.57
2023-04-07T19:32:57.750Z,9.48
2023-04-07T19:35:25.499Z,6.97
2023-04-07T19:37:53.611Z,7.53
2023-04-07T19:40:21.000Z,6.75
2023-04-07T19:42:48.175Z,7.07
2023-04-07T19:45:15.311Z,8.32
2023-04-07T19:47:43.396Z,7.50
2023-04-07T19:50:17.564Z,8.57
2023-04-07T19:52:45.418Z,7.63
2023-04-07T19:55:14.043Z,6.55
2023-04-07T19:57:41.367Z,7.03
2023-04-07T20:00:10.494Z,8.43
2023-04-07T20:02:37.930Z,8.48
2023-04-07T20:05:05.860Z,11.65
2023-04-07T20:07:33.381Z,9.05
2023-04-07T20:10:01.032Z,6.40
2023-04-07T20:12:28.198Z,6.85
2023-04-07T20:14:55.339Z,7.03
2023-04-07T20:17:22.469Z,6.55
2023-04-07T20:19:49.620Z,6.63
2023-04-07T20:22:16.794Z,6.60
2023-04-07T20:24:43.938Z,7.45
2023-04-07T20:27:11.337Z,8.75
2023-04-07T20:29:38.514Z,9.45
2023-04-07T20:32:05.836Z,8.43
2023-04-07T20:34:32.956Z,8.52
2023-04-07T20:37:00.397Z,8.00
2023-04-07T20:39:27.548Z,9.90
2023-04-07T20:41:54.750Z,7.78
2023-04-07T20:44:22.603Z,8.55
2023-04-07T20:46:49.758Z,11.05
2023-04-07T20:49:16.889Z,9.70
2023-04-07T20:51:44.621Z,9.52
2023-04-07T20:54:12.175Z,9.30
2023-04-07T20:56:39.861Z,9.90
2023-04-07T20:59:07.007Z,10.00
2023-04-07T21:01:34.334Z,9.70
2023-04-07T21:04:02.830Z,12.20
2023-04-07T21:06:31.303Z,8.95
2023-04-07T21:08:58.670Z,9.82
2023-04-07T21:11:26.077Z,9.23
2023-04-07T21:13:53.254Z,11.98
2023-04-07T21:16:20.754Z,11.00
2023-04-07T21:18:48.315Z,9.25
2023-04-07T21:21:15.905Z,11.27
2023-04-07T21:23:43.057Z,9.38
2023-04-07T21:26:10.290Z,12.20
2023-04-07T21:28:40.346Z,11.38
2023-04-07T21:31:08.089Z,12.27
2023-04-07T21:33:35.753Z,12.30
2023-04-07T21:36:06.441Z,12.95
2023-04-07T21:38:33.760Z,12.88
2023-04-07T21:41:01.123Z,11.05
2023-04-07T21:43:28.833Z,11.57
2023-04-07T21:45:56.075Z,13.38
2023-04-07T21:48:23.588Z,13.25
2023-04-07T21:50:52.092Z,13.60
2023-04-07T21:53:19.383Z,11.93
2023-04-07T21:55:46.558Z,15.23
2023-04-07T21:58:13.718Z,13.90
2023-04-07T22:00:40.917Z,13.57
2023-04-07T22:03:08.249Z,14.70
2023-04-07T22:05:35.629Z,10.90
2023-04-07T22:08:03.175Z,12.48
2023-04-07T22:10:30.963Z,12.27
2023-04-07T22:12:58.303Z,11.77
2023-04-07T22:15:25.469Z,11.90
2023-04-07T22:17:52.715Z,11.40
2023-04-07T22:20:20.028Z,13.10
2023-04-07T22:22:47.183Z,14.40
2023-04-07T22:25:14.369Z,12.93
2023-04-07T22:27:41.657Z,12.18
2023-04-07T22:30:10.903Z,15.95
2023-04-07T22:32:38.218Z,17.98
2023-04-07T22:35:05.880Z,12.68
2023-04-07T22:37:33.030Z,16.90
2023-04-07T22:40:00.402Z,14.75
2023-04-07T22:42:27.751Z,14.23
2023-04-07T22:44:54.995Z,15.05
2023-04-07T22:47:22.594Z,15.90
2023-04-07T22:49:49.899Z,15.63
2023-04-07T22:52:17.052Z,13.48
2023-04-07T22:54:44.234Z,15.50
2023-04-07T22:57:11.429Z,16.80
2023-04-07T22:59:38.788Z,16.10
2023-04-07T23:02:06.289Z,16.73
2023-04-07T23:04:33.606Z,15.60
2023-04-07T23:07:01.399Z,18.45
2023-04-07T23:09:28.545Z,19.13
2023-04-07T23:11:56.989Z,18.00
2023-04-07T23:14:24.300Z,19.08
2023-04-07T23:16:51.572Z,17.60
2023-04-07T23:19:18.793Z,17.75
2023-04-07T23:21:45.960Z,18.48
2023-04-07T23:24:13.357Z,15.23
2023-04-07T23:26:40.557Z,17.77
2023-04-07T23:29:07.728Z,17.08
2023-04-07T23:31:35.003Z,19.25
2023-04-07T23:34:02.357Z,18.02
2023-04-07T23:36:29.632Z,16.95
2023-04-07T23:38:56.784Z,19.25
2023-04-07T23:41:24.255Z,18.02
2023-04-07T23:43:51.591Z,18.17
2023-04-07T23:46:18.836Z,19.55
2023-04-07T23:48:46.221Z,17.63
2023-04-07T23:51:13.415Z,17.30
2023-04-07T23:53:40.599Z,18.98
2023-04-07T23:56:07.897Z,16.67
2023-04-07T23:58:35.179Z,16.98
